Main page
METAR-TAF:

METAR-TAF

Airports :

Pella Municipal Airport

Pella, Iowa, United States

latitude: 41-24N, longitude: 092-56W, elevation: 886 ft

Current weather observation

The report was made 10 minutes ago, at 16:15 UTC
Wind 10 mph from the North
Temperature 68°F
Humidity 94%
Pressure 29.88 in. Hg
Visibility: 10 miles
Broken clouds at a height of 900 ft
Overcast at a height of 2800 ft
rain

METAR: KPEA 281615Z AUTO 35009KT 10SM RA BKN009 OVC028 20/19 A2988 RMK AO2 T02010193

Time: 11:25 (16:25 UTC)


TAF: missing

Weather observations and forecasts of more than 4000 airports (METAR and TAF reports).

The available stations are represented by yellow and red dots on the map.

Hover mouse over dot to see the name of the station.

Then click to see weather observations and forecasts.

To change the map : click on the green buttons with a black cross to zoom in, on the green button with a dash to zoom out, or on the green arrows for adjacent maps.


METAR-TAF: